Time;durP1;ratioP1;P1;durP2;ratioP2;P2;SDS_P1;SDS_P2;PMS_P1;PMS_P2;Temp;Humidity;BMP_temperature;BMP_pressure;BME280_temperature;BME280_humidity;BME280_pressure;Samples;Min_cycle;Max_cycle;Signal;HPM_P1;HPM_P2
2021/03/16 00:01:15;;;;;;;24.33;6.37;;;6.30;99.90;;;;;;5031765;28;20190;-76
2021/03/16 00:03:41;;;;;;;29.87;7.67;;;6.30;99.90;;;;;;5030483;28;20931;-76
2021/03/16 00:06:07;;;;;;;23.10;7.87;;;6.30;99.90;;;;;;5030783;28;20186;-74
2021/03/16 00:08:32;;;;;;;20.97;5.97;;;6.30;99.90;;;;;;5031973;28;20206;-76
2021/03/16 00:10:58;;;;;;;16.63;6.43;;;6.30;99.90;;;;;;5031597;28;20207;-76
2021/03/16 00:13:23;;;;;;;23.17;7.00;;;6.30;99.90;;;;;;5017998;28;20175;-75
2021/03/16 00:15:49;;;;;;;24.53;6.80;;;6.40;99.90;;;;;;5042284;28;20178;-75
2021/03/16 00:18:15;;;;;;;19.40;6.37;;;6.40;99.90;;;;;;5037296;28;20194;-76
2021/03/16 00:20:45;;;;;;;13.33;7.20;;;6.40;99.90;;;;;;5050479;28;20225;-76
2021/03/16 00:23:11;;;;;;;16.07;4.87;;;6.40;99.90;;;;;;5030570;28;20446;-75
2021/03/16 00:25:37;;;;;;;23.23;5.90;;;6.40;99.90;;;;;;5039494;28;20461;-76
2021/03/16 00:28:04;;;;;;;23.57;5.47;;;6.40;99.90;;;;;;5042782;28;20459;-76
2021/03/16 00:30:30;;;;;;;18.93;5.20;;;6.40;99.90;;;;;;5048467;28;20453;-76
2021/03/16 00:32:56;;;;;;;17.77;6.20;;;6.50;99.90;;;;;;5041020;28;20428;-76
2021/03/16 00:35:22;;;;;;;26.30;7.03;;;6.50;99.90;;;;;;5049066;28;20651;-75
2021/03/16 00:37:47;;;;;;;18.43;6.50;;;6.50;99.90;;;;;;5037216;28;20650;-75
2021/03/16 00:40:13;;;;;;;14.93;6.40;;;6.50;99.90;;;;;;5031293;28;20429;-76
2021/03/16 00:42:39;;;;;;;18.27;6.30;;;6.40;99.90;;;;;;5031705;28;20178;-75
2021/03/16 00:45:06;;;;;;;19.73;6.07;;;6.40;99.90;;;;;;5036289;28;20760;-76
2021/03/16 00:47:32;;;;;;;20.63;6.23;;;6.50;99.90;;;;;;5041114;28;20214;-75
2021/03/16 00:49:57;;;;;;;21.57;5.93;;;6.50;99.90;;;;;;5051245;28;20968;-75
2021/03/16 00:52:23;;;;;;;18.23;6.20;;;6.40;99.90;;;;;;5049832;28;20194;-76
2021/03/16 00:54:49;;;;;;;17.93;5.53;;;6.50;99.90;;;;;;5050486;28;20175;-75
2021/03/16 00:57:14;;;;;;;21.53;6.63;;;6.40;99.90;;;;;;5050925;28;20273;-75
2021/03/16 00:59:40;;;;;;;16.23;4.90;;;6.40;99.90;;;;;;5036925;28;20184;-76
2021/03/16 01:02:06;;;;;;;18.83;6.20;;;6.40;99.90;;;;;;5035243;28;20214;-75
2021/03/16 01:04:32;;;;;;;23.10;5.80;;;6.40;99.90;;;;;;5049890;28;20590;-75
2021/03/16 01:06:57;;;;;;;11.37;5.67;;;6.50;99.90;;;;;;5047490;28;20603;-76
2021/03/16 01:09:23;;;;;;;13.77;4.47;;;6.50;99.90;;;;;;5051080;28;20231;-75
2021/03/16 01:11:48;;;;;;;20.77;4.83;;;6.50;99.90;;;;;;5049451;28;20541;-76
2021/03/16 01:14:14;;;;;;;11.40;4.83;;;6.50;99.90;;;;;;5049725;28;20175;-76
2021/03/16 01:16:39;;;;;;;16.27;6.30;;;6.50;99.90;;;;;;5043991;28;20186;-76
2021/03/16 01:19:05;;;;;;;17.03;5.50;;;6.40;99.90;;;;;;5053747;28;20174;-75
2021/03/16 01:21:31;;;;;;;12.93;4.80;;;6.40;99.90;;;;;;5048876;28;20526;-74
2021/03/16 01:23:56;;;;;;;13.77;4.00;;;6.50;99.90;;;;;;5033967;28;20321;-75
2021/03/16 01:26:22;;;;;;;17.30;5.53;;;6.40;99.90;;;;;;5041303;28;20171;-76
2021/03/16 01:28:47;;;;;;;13.37;4.43;;;6.50;99.90;;;;;;5052007;28;20664;-76
2021/03/16 01:31:13;;;;;;;21.23;5.20;;;6.40;99.90;;;;;;5042383;28;20198;-74
2021/03/16 01:33:38;;;;;;;21.07;5.43;;;6.50;99.90;;;;;;5039329;28;20259;-75
2021/03/16 01:36:04;;;;;;;20.33;5.60;;;6.50;99.90;;;;;;5035619;28;20170;-76
2021/03/16 01:38:30;;;;;;;18.70;5.30;;;6.50;99.90;;;;;;5037878;28;20208;-76
2021/03/16 01:40:55;;;;;;;15.37;6.10;;;6.50;99.90;;;;;;5052479;28;20844;-75
2021/03/16 01:43:25;;;;;;;15.20;4.27;;;6.50;99.90;;;;;;5051559;28;20206;-75
2021/03/16 01:45:51;;;;;;;16.80;5.17;;;6.40;99.90;;;;;;5052753;28;20694;-76
2021/03/16 01:48:24;;;;;;;26.23;5.57;;;6.40;99.90;;;;;;5043021;28;20867;-75
2021/03/16 01:50:49;;;;;;;14.53;4.20;;;6.40;99.90;;;;;;5047315;28;20457;-75
2021/03/16 01:53:17;;;;;;;13.67;4.20;;;6.50;99.90;;;;;;5033232;28;20452;-75
2021/03/16 01:55:43;;;;;;;16.77;4.97;;;6.50;99.90;;;;;;5048370;28;20239;-76
2021/03/16 01:58:08;;;;;;;14.83;5.30;;;6.60;99.90;;;;;;5050533;28;20445;-74
2021/03/16 02:00:39;;;;;;;14.37;4.90;;;6.60;99.90;;;;;;5047598;28;20793;-75
2021/03/16 02:03:07;;;;;;;18.60;5.00;;;6.50;99.90;;;;;;5046191;28;20179;-76
2021/03/16 02:05:32;;;;;;;14.63;4.33;;;6.50;99.90;;;;;;5051232;28;20483;-76
2021/03/16 02:08:20;;;;;;;17.60;3.93;;;6.60;99.90;;;;;;5051209;28;20966;-76
2021/03/16 02:11:29;;;;;;;13.23;3.47;;;6.50;99.90;;;;;;5050455;28;20285;-75
2021/03/16 02:14:29;;;;;;;7.17;3.07;;;6.50;99.90;;;;;;5030382;28;20437;-75
2021/03/16 02:17:14;;;;;;;13.33;4.00;;;6.50;99.90;;;;;;5037027;28;20421;-75
2021/03/16 02:19:51;;;;;;;17.87;3.73;;;6.50;99.90;;;;;;5049203;28;20417;-75
2021/03/16 02:22:19;;;;;;;17.20;3.97;;;6.50;99.90;;;;;;5031790;28;20449;-76
2021/03/16 02:25:06;;;;;;;15.93;3.50;;;6.50;99.90;;;;;;5037065;28;20421;-75
2021/03/16 02:27:41;;;;;;;12.70;3.97;;;6.50;99.90;;;;;;5039897;28;20804;-76
2021/03/16 02:30:08;;;;;;;21.07;4.87;;;6.50;99.90;;;;;;5051062;28;20452;-75
2021/03/16 02:32:35;;;;;;;27.13;5.87;;;6.50;99.90;;;;;;5031418;28;20792;-76
2021/03/16 02:35:04;;;;;;;14.43;5.30;;;6.50;99.90;;;;;;5032510;28;20433;-75
2021/03/16 02:37:35;;;;;;;15.60;5.40;;;6.50;99.90;;;;;;5051024;28;20441;-76
2021/03/16 02:40:03;;;;;;;11.53;4.13;;;6.50;99.90;;;;;;5044967;28;20434;-75
2021/03/16 02:42:33;;;;;;;27.00;5.40;;;6.50;99.90;;;;;;5034500;28;20903;-75
2021/03/16 02:44:59;;;;;;;24.63;6.97;;;6.50;99.90;;;;;;5036245;28;20514;-74
2021/03/16 02:47:26;;;;;;;22.27;6.43;;;6.50;99.90;;;;;;5048161;28;20863;-75
2021/03/16 02:49:52;;;;;;;14.17;5.23;;;6.50;99.90;;;;;;5050617;28;20818;-75
2021/03/16 02:52:18;;;;;;;10.83;4.23;;;6.40;99.90;;;;;;5035489;28;20449;-75
2021/03/16 02:54:46;;;;;;;12.60;5.03;;;6.40;99.90;;;;;;5052093;28;20425;-76
2021/03/16 02:57:13;;;;;;;18.90;5.20;;;6.40;99.90;;;;;;5052013;28;20445;-75
2021/03/16 02:59:43;;;;;;;13.90;4.90;;;6.40;99.90;;;;;;5050252;28;20444;-75
2021/03/16 03:02:13;;;;;;;28.00;5.57;;;6.40;99.90;;;;;;5036480;28;20933;-75
2021/03/16 03:04:45;;;;;;;14.40;4.03;;;6.40;99.90;;;;;;5037693;28;20438;-76
2021/03/16 03:07:11;;;;;;;23.97;4.60;;;6.40;99.90;;;;;;5031731;28;20525;-76
2021/03/16 03:09:37;;;;;;;11.57;4.70;;;6.40;99.90;;;;;;5028283;28;20455;-76
2021/03/16 03:12:06;;;;;;;19.20;5.97;;;6.30;99.90;;;;;;5030942;28;20426;-76
2021/03/16 03:14:33;;;;;;;10.20;4.00;;;6.30;99.90;;;;;;5032934;28;20805;-75
2021/03/16 03:16:59;;;;;;;18.10;5.30;;;6.40;99.90;;;;;;5032098;28;20927;-75
2021/03/16 03:19:24;;;;;;;22.73;6.97;;;6.30;99.90;;;;;;5032657;28;20429;-75
2021/03/16 03:21:57;;;;;;;22.43;5.53;;;6.30;99.90;;;;;;5034640;28;20567;-75
2021/03/16 03:24:30;;;;;;;19.80;5.40;;;6.30;99.90;;;;;;5033400;28;20699;-75
2021/03/16 03:27:02;;;;;;;14.30;4.60;;;6.20;99.90;;;;;;5047911;28;20474;-75
2021/03/16 03:29:30;;;;;;;16.00;4.30;;;6.30;99.90;;;;;;5032958;28;20472;-75
2021/03/16 03:31:57;;;;;;;11.17;3.60;;;6.30;99.90;;;;;;5032690;28;20498;-75
2021/03/16 03:34:23;;;;;;;22.87;4.77;;;6.30;99.90;;;;;;5032439;28;20423;-76
2021/03/16 03:36:53;;;;;;;13.83;3.73;;;6.30;99.90;;;;;;5032572;28;20426;-76
2021/03/16 03:39:21;;;;;;;11.40;4.30;;;6.30;99.90;;;;;;5032729;28;20441;-77
2021/03/16 03:41:47;;;;;;;21.73;5.33;;;6.30;99.90;;;;;;5033318;28;20421;-76
2021/03/16 03:44:14;;;;;;;13.77;3.33;;;6.30;99.90;;;;;;5023552;28;20753;-76
2021/03/16 03:46:41;;;;;;;7.50;3.03;;;6.40;99.90;;;;;;5029257;28;20476;-76
2021/03/16 03:49:07;;;;;;;27.43;5.60;;;6.40;99.90;;;;;;5032362;28;20568;-76
2021/03/16 03:51:35;;;;;;;14.90;4.87;;;6.40;99.90;;;;;;5032347;28;20816;-76
2021/03/16 03:54:04;;;;;;;16.50;5.50;;;6.40;99.90;;;;;;5032410;28;20394;-75
2021/03/16 03:56:33;;;;;;;10.37;4.30;;;6.40;99.90;;;;;;5032156;28;20485;-76
2021/03/16 03:58:59;;;;;;;32.50;7.10;;;6.40;99.90;;;;;;5031874;28;20962;-75
2021/03/16 04:01:27;;;;;;;17.20;5.30;;;6.40;99.90;;;;;;5030119;28;20899;-75
2021/03/16 04:03:53;;;;;;;9.87;5.00;;;6.30;99.90;;;;;;5032396;28;20918;-75
2021/03/16 04:06:22;;;;;;;9.53;3.93;;;6.30;99.90;;;;;;5032326;28;20422;-76
2021/03/16 04:08:48;;;;;;;20.63;5.20;;;6.40;99.90;;;;;;5032130;28;20191;-76
2021/03/16 04:11:14;;;;;;;18.10;5.50;;;6.30;99.90;;;;;;5030644;28;20812;-76
2021/03/16 04:13:40;;;;;;;15.33;6.63;;;6.40;99.90;;;;;;5030948;28;20418;-76
2021/03/16 04:16:06;;;;;;;12.23;5.10;;;6.40;99.90;;;;;;5032252;28;20460;-75
2021/03/16 04:18:32;;;;;;;18.20;5.17;;;6.30;99.90;;;;;;5026315;28;20183;-76
2021/03/16 04:20:58;;;;;;;15.90;4.63;;;6.40;99.90;;;;;;5031652;28;20171;-76
2021/03/16 04:23:23;;;;;;;13.77;5.20;;;6.40;99.90;;;;;;5031913;28;20409;-76
2021/03/16 04:25:49;;;;;;;12.47;5.30;;;6.40;99.90;;;;;;5032074;28;20167;-75
2021/03/16 04:28:14;;;;;;;20.17;6.20;;;6.40;99.90;;;;;;5032042;28;20192;-76
2021/03/16 04:30:40;;;;;;;12.60;4.40;;;6.40;99.90;;;;;;5031492;28;20195;-76
2021/03/16 04:33:07;;;;;;;12.10;5.60;;;6.40;99.90;;;;;;5039062;28;20243;-76
2021/03/16 04:35:33;;;;;;;14.97;6.67;;;6.40;99.90;;;;;;5031021;28;20175;-76
2021/03/16 04:37:58;;;;;;;14.63;4.73;;;6.40;99.90;;;;;;5041376;28;20515;-76
2021/03/16 04:40:24;;;;;;;8.93;4.10;;;6.40;99.90;;;;;;5035111;28;20222;-76
2021/03/16 04:42:50;;;;;;;20.03;8.17;;;6.40;99.90;;;;;;5032312;28;20208;-75
2021/03/16 04:45:16;;;;;;;17.77;5.80;;;6.40;99.90;;;;;;5046803;28;20826;-75
2021/03/16 04:47:42;;;;;;;17.13;5.53;;;6.30;99.90;;;;;;5031291;28;20214;-74
2021/03/16 04:50:08;;;;;;;21.03;4.67;;;6.30;99.90;;;;;;5033760;28;20202;-75
2021/03/16 04:52:33;;;;;;;21.73;5.50;;;6.30;99.90;;;;;;5024735;28;20267;-75
2021/03/16 04:54:59;;;;;;;17.00;5.37;;;6.40;99.90;;;;;;5016879;28;20427;-75
2021/03/16 04:57:24;;;;;;;16.43;4.90;;;6.30;99.90;;;;;;5035329;28;20250;-76
2021/03/16 04:59:50;;;;;;;20.40;4.70;;;6.30;99.90;;;;;;5050604;28;20182;-75
2021/03/16 05:02:16;;;;;;;13.00;4.87;;;6.30;99.90;;;;;;5039747;28;20182;-76
2021/03/16 05:04:42;;;;;;;16.90;5.20;;;6.30;99.90;;;;;;5054401;28;20258;-76
2021/03/16 05:07:07;;;;;;;19.60;6.00;;;6.40;99.90;;;;;;5048603;28;20536;-75
2021/03/16 05:09:33;;;;;;;14.10;4.13;;;6.40;99.90;;;;;;5052737;28;20232;-76
2021/03/16 05:11:59;;;;;;;14.83;5.40;;;6.40;99.90;;;;;;5043695;28;20181;-76
2021/03/16 05:14:24;;;;;;;17.83;5.03;;;6.50;99.90;;;;;;5048961;28;20171;-75
2021/03/16 05:16:50;;;;;;;21.40;4.90;;;6.50;99.90;;;;;;5045590;28;20178;-76
2021/03/16 05:19:15;;;;;;;20.67;4.60;;;6.40;99.90;;;;;;5035727;28;20171;-74
2021/03/16 05:21:41;;;;;;;16.67;5.10;;;6.50;99.90;;;;;;5043613;28;20543;-74
2021/03/16 05:24:07;;;;;;;14.17;5.00;;;6.40;99.90;;;;;;5053290;28;20178;-76
2021/03/16 05:26:33;;;;;;;10.93;5.07;;;6.50;99.90;;;;;;5054456;28;20417;-76
2021/03/16 05:28:59;;;;;;;13.07;3.83;;;6.40;99.90;;;;;;5049845;28;20437;-75
2021/03/16 05:31:24;;;;;;;15.73;3.80;;;6.40;99.90;;;;;;5041233;28;20200;-76
2021/03/16 05:33:50;;;;;;;14.33;4.07;;;6.40;99.90;;;;;;5038542;28;20174;-75
2021/03/16 05:36:15;;;;;;;21.23;3.80;;;6.30;99.90;;;;;;5052750;28;20175;-75
2021/03/16 05:38:41;;;;;;;20.23;5.00;;;6.40;99.90;;;;;;5051572;28;20195;-75
2021/03/16 05:41:08;;;;;;;22.43;6.57;;;6.40;99.90;;;;;;5047779;28;20195;-75
2021/03/16 05:43:35;;;;;;;28.17;4.93;;;6.40;99.90;;;;;;5041748;28;20193;-75
2021/03/16 05:46:01;;;;;;;21.37;4.70;;;6.40;99.90;;;;;;5052669;28;20538;-76
2021/03/16 05:48:28;;;;;;;12.70;4.10;;;6.40;99.90;;;;;;5052671;28;20988;-76
2021/03/16 05:50:54;;;;;;;15.30;6.27;;;6.40;99.90;;;;;;5049977;28;20312;-76
2021/03/16 05:53:21;;;;;;;12.13;5.80;;;6.40;99.90;;;;;;5037099;28;20884;-76
2021/03/16 05:55:47;;;;;;;15.93;5.03;;;6.40;99.90;;;;;;5052176;28;20181;-76
2021/03/16 05:58:13;;;;;;;8.33;4.20;;;6.40;99.90;;;;;;5042304;28;20442;-76
2021/03/16 06:00:38;;;;;;;13.77;5.60;;;6.40;99.90;;;;;;5051536;28;20429;-76
2021/03/16 06:03:04;;;;;;;10.40;4.70;;;6.40;99.90;;;;;;5036044;28;20187;-76
2021/03/16 06:05:29;;;;;;;22.40;5.53;;;6.50;99.90;;;;;;5034385;28;20211;-76
2021/03/16 06:07:55;;;;;;;17.40;5.13;;;6.50;99.90;;;;;;5034278;28;20648;-76
2021/03/16 06:10:22;;;;;;;15.13;5.33;;;6.50;99.90;;;;;;5033938;28;20253;-76
2021/03/16 06:12:48;;;;;;;22.73;7.60;;;6.40;99.90;;;;;;5034991;28;20214;-76
2021/03/16 06:15:17;;;;;;;14.43;5.03;;;6.50;99.90;;;;;;5043853;28;20485;-75
2021/03/16 06:17:53;;;;;;;11.50;4.40;;;6.40;99.90;;;;;;5036967;28;20968;-75
2021/03/16 06:20:30;;;;;;;13.83;5.03;;;6.50;99.90;;;;;;5053104;28;20412;-75
2021/03/16 06:23:13;;;;;;;19.20;5.60;;;6.40;99.90;;;;;;5052806;28;20429;-75
2021/03/16 06:25:42;;;;;;;23.87;4.27;;;6.40;99.90;;;;;;5030030;28;20414;-75
2021/03/16 06:28:10;;;;;;;17.47;4.30;;;6.40;99.90;;;;;;5053085;28;20469;-76
2021/03/16 06:30:37;;;;;;;8.17;3.43;;;6.50;99.90;;;;;;5051095;28;20544;-75
2021/03/16 06:33:04;;;;;;;14.10;3.60;;;6.50;99.90;;;;;;5049872;28;20431;-76
2021/03/16 06:35:30;;;;;;;12.43;4.50;;;6.50;99.90;;;;;;5051007;28;21996;-76
2021/03/16 06:38:10;;;;;;;13.67;4.87;;;6.60;99.90;;;;;;5034378;28;20487;-75
2021/03/16 06:40:35;;;;;;;12.80;5.10;;;6.60;99.90;;;;;;5047269;28;20194;-76
2021/03/16 06:43:11;;;;;;;15.03;4.57;;;6.70;99.90;;;;;;5048231;28;20433;-75
2021/03/16 06:45:39;;;;;;;13.20;4.97;;;6.60;99.90;;;;;;5052165;28;20200;-75
2021/03/16 06:48:18;;;;;;;25.23;5.80;;;6.70;99.90;;;;;;5041209;28;20468;-74
2021/03/16 06:50:45;;;;;;;16.20;5.27;;;6.80;99.90;;;;;;5046506;28;20564;-75
2021/03/16 06:53:32;;;;;;;21.23;4.37;;;6.80;99.90;;;;;;5034900;28;20426;-75
2021/03/16 06:55:58;;;;;;;24.00;4.43;;;6.90;99.90;;;;;;5034747;28;20512;-75
2021/03/16 06:58:30;;;;;;;14.70;3.90;;;6.90;99.90;;;;;;5047817;28;20532;-75
2021/03/16 07:01:16;;;;;;;12.93;5.33;;;7.00;99.90;;;;;;5049994;28;20755;-75
2021/03/16 07:03:42;;;;;;;13.87;4.67;;;7.10;99.90;;;;;;5041039;28;20516;-75
2021/03/16 07:06:16;;;;;;;16.00;4.23;;;7.00;99.90;;;;;;5053086;28;20492;-75
2021/03/16 07:08:43;;;;;;;12.43;4.00;;;7.00;99.90;;;;;;5048482;28;20449;-76
2021/03/16 07:11:10;;;;;;;10.90;3.50;;;7.00;99.90;;;;;;5050682;28;20492;-74
2021/03/16 07:13:36;;;;;;;9.80;2.80;;;7.00;99.90;;;;;;5048755;28;20464;-74
2021/03/16 07:16:03;;;;;;;8.10;4.27;;;7.10;99.90;;;;;;5053155;28;20409;-75
2021/03/16 07:18:33;;;;;;;14.00;4.20;;;7.10;99.90;;;;;;5047241;28;20540;-74
2021/03/16 07:21:09;;;;;;;7.60;3.83;;;7.10;99.90;;;;;;5033648;28;20429;-75
2021/03/16 07:23:42;;;;;;;16.00;4.30;;;7.20;99.90;;;;;;5040782;28;20429;-76
2021/03/16 07:26:08;;;;;;;13.43;4.23;;;7.30;99.90;;;;;;5035282;28;20430;-75
2021/03/16 07:28:34;;;;;;;16.53;5.07;;;7.30;99.90;;;;;;5041055;28;21066;-75
2021/03/16 07:31:01;;;;;;;20.40;6.03;;;7.40;99.90;;;;;;5049933;28;20202;-75
2021/03/16 07:33:28;;;;;;;12.37;5.03;;;7.50;99.90;;;;;;5045650;28;20180;-75
2021/03/16 07:35:54;;;;;;;12.27;4.60;;;7.40;99.90;;;;;;5038462;28;20422;-76
2021/03/16 07:38:21;;;;;;;16.93;6.87;;;7.50;99.90;;;;;;5043397;28;20454;-76
2021/03/16 07:40:48;;;;;;;14.33;5.83;;;7.60;99.90;;;;;;5043551;28;20432;-75
2021/03/16 07:43:13;;;;;;;17.70;4.57;;;7.60;99.90;;;;;;5049397;28;20437;-77
2021/03/16 07:45:39;;;;;;;23.70;5.13;;;7.70;99.90;;;;;;5050699;28;20437;-76
2021/03/16 07:48:19;;;;;;;11.03;4.00;;;7.80;99.90;;;;;;5043624;28;20301;-76
2021/03/16 07:50:45;;;;;;;17.80;5.80;;;8.00;99.90;;;;;;5046821;28;20460;-75
2021/03/16 07:53:22;;;;;;;14.50;5.03;;;8.10;99.90;;;;;;5050070;28;20449;-76
2021/03/16 07:55:47;;;;;;;16.47;5.97;;;8.20;99.90;;;;;;5034505;28;22356;-77
2021/03/16 07:58:15;;;;;;;16.10;6.50;;;8.30;99.90;;;;;;5037352;28;20560;-75
2021/03/16 08:00:40;;;;;;;14.33;6.67;;;8.50;99.90;;;;;;5048778;28;20187;-75
2021/03/16 08:03:06;;;;;;;13.10;6.17;;;8.70;99.90;;;;;;5050483;28;20448;-75
2021/03/16 08:05:40;;;;;;;16.80;6.53;;;8.60;99.90;;;;;;5047629;28;20811;-76
2021/03/16 08:08:16;;;;;;;18.60;5.83;;;8.70;99.90;;;;;;5042220;28;20211;-75
2021/03/16 08:10:42;;;;;;;14.90;6.73;;;8.60;99.90;;;;;;5032443;28;21036;-76
2021/03/16 08:13:16;;;;;;;10.93;6.30;;;8.80;99.90;;;;;;5037119;28;20426;-75
2021/03/16 08:15:43;;;;;;;11.23;5.97;;;9.40;99.90;;;;;;5032053;28;20418;-76
2021/03/16 08:18:09;;;;;;;11.80;6.10;;;9.90;99.90;;;;;;5042039;28;20441;-75
2021/03/16 08:20:35;;;;;;;9.83;5.03;;;10.10;99.90;;;;;;5049956;28;21009;-77
2021/03/16 08:23:05;;;;;;;15.93;5.53;;;10.00;99.90;;;;;;5054678;28;20444;-77
2021/03/16 08:25:32;;;;;;;10.30;5.13;;;9.90;99.90;;;;;;5043937;28;20198;-77
2021/03/16 08:27:59;;;;;;;11.03;4.00;;;9.80;99.90;;;;;;5035604;28;20454;-77
2021/03/16 08:30:25;;;;;;;13.10;5.20;;;9.50;99.90;;;;;;5036061;28;20469;-78
2021/03/16 08:32:51;;;;;;;14.10;4.80;;;9.40;99.90;;;;;;5048978;28;20439;-78
2021/03/16 08:35:19;;;;;;;9.80;6.27;;;9.30;99.90;;;;;;5038495;28;20990;-78
2021/03/16 08:37:50;;;;;;;18.10;8.07;;;9.20;99.90;;;;;;5039764;28;20675;-77
2021/03/16 08:40:23;;;;;;;14.03;6.40;;;9.20;99.90;;;;;;5037600;28;20417;-78
2021/03/16 08:42:49;;;;;;;13.57;6.07;;;9.20;99.90;;;;;;5037016;28;20441;-78
2021/03/16 08:45:15;;;;;;;6.70;4.43;;;9.30;99.90;;;;;;5049711;28;20429;-78
2021/03/16 08:47:41;;;;;;;11.23;5.40;;;9.30;99.90;;;;;;5044791;28;20233;-78
2021/03/16 08:50:07;;;;;;;8.13;4.30;;;9.50;99.90;;;;;;5035069;28;20469;-77
2021/03/16 08:52:32;;;;;;;14.97;4.87;;;9.80;99.90;;;;;;5033980;28;20613;-78
2021/03/16 08:55:00;;;;;;;11.30;4.33;;;10.10;99.90;;;;;;5034830;28;20429;-78
2021/03/16 08:57:31;;;;;;;11.17;5.00;;;10.30;99.90;;;;;;5035984;28;20247;-77
2021/03/16 08:59:59;;;;;;;11.57;5.20;;;10.50;99.90;;;;;;5038085;28;20445;-78
2021/03/16 09:02:28;;;;;;;11.63;5.43;;;10.50;99.90;;;;;;5052199;28;20445;-77
2021/03/16 09:04:58;;;;;;;9.17;4.23;;;10.70;99.90;;;;;;5038250;28;20914;-77
2021/03/16 09:07:27;;;;;;;19.10;5.20;;;10.70;99.90;;;;;;5039741;28;20461;-77
2021/03/16 09:10:14;;;;;;;11.27;5.67;;;10.90;99.90;;;;;;5037262;28;20449;-77
2021/03/16 09:12:42;;;;;;;13.33;5.00;;;10.90;99.90;;;;;;5032999;28;20432;-77
2021/03/16 09:15:16;;;;;;;11.27;5.97;;;11.00;99.90;;;;;;5053171;28;20416;-78
2021/03/16 09:17:45;;;;;;;8.40;4.07;;;10.90;99.90;;;;;;5051165;28;20483;-77
2021/03/16 09:20:21;;;;;;;6.47;2.60;;;10.70;99.90;;;;;;5033640;28;20465;-76
2021/03/16 09:22:59;;;;;;;15.00;2.80;;;10.70;99.90;;;;;;5032274;28;20911;-77
2021/03/16 09:25:39;;;;;;;14.00;3.30;;;10.30;99.90;;;;;;5033352;28;20430;-77
2021/03/16 09:28:07;;;;;;;15.37;3.60;;;10.20;99.90;;;;;;5038858;28;20455;-76
2021/03/16 09:30:52;;;;;;;13.50;4.10;;;10.10;99.90;;;;;;5046412;28;20541;-76
2021/03/16 09:33:20;;;;;;;8.40;3.20;;;10.20;99.90;;;;;;5034494;28;20428;-76
2021/03/16 09:35:57;;;;;;;14.23;3.77;;;10.40;99.90;;;;;;5032941;28;20426;-77
2021/03/16 09:38:23;;;;;;;13.10;3.50;;;10.40;99.90;;;;;;5040543;28;20888;-76
2021/03/16 09:40:49;;;;;;;5.20;2.80;;;10.50;99.90;;;;;;5053096;28;20452;-76
2021/03/16 09:43:25;;;;;;;13.47;3.27;;;10.70;99.90;;;;;;5054840;28;20543;-76
2021/03/16 09:45:56;;;;;;;8.33;3.63;;;10.80;99.90;;;;;;5051738;28;20534;-76
2021/03/16 09:48:22;;;;;;;15.70;4.23;;;10.70;99.90;;;;;;5034167;28;20806;-76
2021/03/16 09:50:48;;;;;;;9.77;3.93;;;10.80;99.90;;;;;;5034047;28;20497;-76
2021/03/16 09:53:15;;;;;;;13.80;3.83;;;11.00;99.90;;;;;;5034926;28;20438;-76
2021/03/16 09:55:42;;;;;;;20.43;3.97;;;11.10;99.90;;;;;;5034558;28;20461;-76
2021/03/16 09:58:19;;;;;;;4.80;3.70;;;11.10;99.90;;;;;;5050904;28;20935;-77
2021/03/16 10:00:49;;;;;;;8.80;3.87;;;11.30;99.90;;;;;;5054003;28;20931;-76
2021/03/16 10:03:17;;;;;;;10.07;3.93;;;11.60;99.90;;;;;;5059320;28;20428;-77
2021/03/16 10:05:43;;;;;;;12.63;3.20;;;11.60;99.90;;;;;;5049738;28;20418;-76
2021/03/16 10:08:08;;;;;;;8.23;3.37;;;11.50;99.90;;;;;;5036502;28;20446;-77
2021/03/16 10:10:38;;;;;;;7.40;3.17;;;11.60;99.90;;;;;;5038128;28;20539;-77
2021/03/16 10:13:05;;;;;;;11.97;3.43;;;11.50;99.90;;;;;;5044312;28;20178;-76
2021/03/16 10:15:39;;;;;;;16.37;5.23;;;11.40;99.90;;;;;;5046363;28;20812;-76
2021/03/16 10:18:09;;;;;;;12.43;3.90;;;11.40;99.90;;;;;;5034075;28;20442;-76
2021/03/16 10:20:37;;;;;;;13.43;3.70;;;11.40;99.90;;;;;;5034504;28;20767;-77
2021/03/16 10:23:08;;;;;;;9.50;2.80;;;11.50;99.90;;;;;;5038219;28;20474;-78
2021/03/16 10:25:35;;;;;;;8.43;3.27;;;11.90;99.90;;;;;;5037151;28;20497;-77
2021/03/16 10:28:01;;;;;;;9.10;3.60;;;11.90;99.90;;;;;;5036649;28;20503;-78
2021/03/16 10:30:46;;;;;;;10.63;2.60;;;12.10;99.90;;;;;;5035256;28;20465;-76
2021/03/16 10:33:12;;;;;;;8.30;2.60;;;12.10;99.90;;;;;;5026543;28;20443;-76
2021/03/16 10:35:40;;;;;;;11.53;3.80;;;12.10;99.90;;;;;;5051669;28;20509;-76
2021/03/16 10:38:06;;;;;;;6.40;2.83;;;12.20;99.90;;;;;;5038229;28;20465;-76
2021/03/16 10:40:34;;;;;;;10.57;3.27;;;12.30;99.90;;;;;;5052864;28;20428;-76
2021/03/16 10:42:59;;;;;;;8.73;3.63;;;12.20;99.90;;;;;;5050917;28;20414;-76
2021/03/16 10:45:26;;;;;;;10.43;4.17;;;12.10;99.90;;;;;;5035398;28;20921;-77
2021/03/16 10:47:53;;;;;;;9.03;3.80;;;11.70;99.90;;;;;;5036358;28;20194;-78
2021/03/16 10:50:19;;;;;;;8.30;3.37;;;11.30;99.90;;;;;;5040809;28;20459;-78
2021/03/16 10:52:45;;;;;;;7.83;2.90;;;11.00;99.90;;;;;;5038316;28;20414;-78
2021/03/16 10:55:11;;;;;;;7.57;2.70;;;11.00;99.90;;;;;;5038152;28;20507;-77
2021/03/16 10:57:37;;;;;;;10.70;6.13;;;11.00;99.90;;;;;;5036775;28;20197;-78
2021/03/16 11:00:08;;;;;;;7.17;2.20;;;10.90;99.90;;;;;;5035156;28;20436;-76
2021/03/16 11:02:33;;;;;;;8.70;3.23;;;11.00;99.90;;;;;;5036352;28;20192;-76
2021/03/16 11:04:59;;;;;;;6.60;3.03;;;11.20;99.90;;;;;;5033099;28;20432;-76
2021/03/16 11:07:24;;;;;;;5.97;3.00;;;11.20;99.90;;;;;;5034895;28;20212;-77
2021/03/16 11:09:50;;;;;;;5.23;3.77;;;11.10;99.90;;;;;;5034168;28;20265;-77
2021/03/16 11:12:17;;;;;;;6.10;3.20;;;11.10;99.90;;;;;;5035396;28;20248;-77
2021/03/16 11:14:43;;;;;;;8.73;2.33;;;11.10;99.90;;;;;;5035955;28;20164;-77
2021/03/16 11:17:09;;;;;;;9.33;3.97;;;10.90;99.90;;;;;;5034766;28;20423;-76
2021/03/16 11:19:35;;;;;;;8.47;5.60;;;11.10;99.90;;;;;;5031609;28;20600;-77
2021/03/16 11:22:00;;;;;;;11.10;3.63;;;11.20;99.90;;;;;;5034569;28;20418;-77
2021/03/16 11:24:26;;;;;;;10.13;3.43;;;11.10;99.90;;;;;;5034861;28;20579;-77
2021/03/16 11:26:51;;;;;;;9.33;2.90;;;11.40;99.90;;;;;;5034482;28;20690;-77
2021/03/16 11:29:17;;;;;;;11.27;4.50;;;11.50;99.90;;;;;;5033902;28;20175;-78
2021/03/16 11:31:43;;;;;;;10.93;4.53;;;11.50;99.90;;;;;;5034516;28;20266;-78
2021/03/16 11:34:08;;;;;;;8.40;3.10;;;11.60;99.90;;;;;;5033768;28;20585;-77
2021/03/16 11:36:34;;;;;;;10.67;3.30;;;11.70;99.90;;;;;;5037192;28;20171;-78
2021/03/16 11:38:59;;;;;;;6.10;3.57;;;11.90;99.90;;;;;;5035477;28;20558;-76
2021/03/16 11:41:25;;;;;;;14.43;4.20;;;11.90;99.90;;;;;;5032336;28;20171;-76
2021/03/16 11:43:50;;;;;;;8.10;3.00;;;11.60;99.90;;;;;;5035769;28;20178;-78
2021/03/16 11:46:16;;;;;;;7.90;2.73;;;11.60;99.90;;;;;;5036148;28;20198;-78
2021/03/16 11:48:42;;;;;;;6.77;3.20;;;11.70;99.90;;;;;;5039798;28;20203;-78
2021/03/16 11:51:07;;;;;;;7.97;3.53;;;11.80;99.90;;;;;;5037450;28;20202;-75
2021/03/16 11:53:33;;;;;;;5.37;3.77;;;11.80;99.90;;;;;;5032399;28;20624;-76
2021/03/16 11:55:59;;;;;;;7.83;3.27;;;11.80;99.90;;;;;;5028263;28;20206;-76
2021/03/16 11:58:25;;;;;;;9.10;2.77;;;12.00;99.90;;;;;;5030124;28;20665;-76
2021/03/16 12:00:52;;;;;;;8.00;2.80;;;12.00;99.90;;;;;;5030523;28;20342;-77
2021/03/16 12:03:17;;;;;;;6.57;2.60;;;12.10;99.90;;;;;;5032225;28;20905;-77
2021/03/16 12:05:43;;;;;;;6.60;2.87;;;12.10;99.90;;;;;;5032278;28;20405;-77
2021/03/16 12:08:08;;;;;;;12.13;3.90;;;12.10;99.90;;;;;;5032288;28;20193;-77
2021/03/16 12:10:34;;;;;;;8.67;3.40;;;12.10;99.90;;;;;;5023562;28;20203;-77
2021/03/16 12:13:00;;;;;;;8.77;3.20;;;11.90;99.90;;;;;;5035052;28;20193;-76
2021/03/16 12:15:25;;;;;;;7.07;3.03;;;12.10;99.90;;;;;;5027270;28;20560;-77
2021/03/16 12:17:51;;;;;;;7.20;3.00;;;12.20;99.90;;;;;;5030639;28;20214;-76
2021/03/16 12:20:17;;;;;;;7.10;2.90;;;12.40;99.90;;;;;;5027724;28;20190;-75
2021/03/16 12:22:43;;;;;;;5.93;3.30;;;12.50;99.90;;;;;;5028054;28;20226;-76
2021/03/16 12:25:10;;;;;;;11.67;3.40;;;12.40;99.90;;;;;;5031878;28;20418;-77
2021/03/16 12:27:35;;;;;;;6.00;2.57;;;12.30;99.90;;;;;;5047616;28;20523;-77
2021/03/16 12:30:01;;;;;;;8.33;3.23;;;12.20;99.90;;;;;;5031538;28;20547;-77
2021/03/16 12:32:27;;;;;;;11.70;4.47;;;12.00;99.90;;;;;;5026929;28;20475;-76
2021/03/16 12:34:52;;;;;;;9.90;5.30;;;11.70;99.90;;;;;;5047444;28;20175;-76
2021/03/16 12:37:18;;;;;;;7.30;4.30;;;11.50;99.90;;;;;;5031946;28;20185;-77
2021/03/16 12:39:44;;;;;;;10.07;3.63;;;10.80;99.90;;;;;;5030470;28;20171;-77
2021/03/16 12:42:10;;;;;;;4.87;3.70;;;10.20;99.90;;;;;;5032141;28;20445;-76
2021/03/16 12:44:36;;;;;;;5.60;4.47;;;9.70;99.90;;;;;;5031095;28;20175;-77
2021/03/16 12:47:04;;;;;;;3.73;3.37;;;9.30;99.90;;;;;;5031844;28;20460;-76
2021/03/16 12:49:30;;;;;;;8.13;5.00;;;9.10;99.90;;;;;;5032988;28;20175;-77